Time;durP1;ratioP1;P1;durP2;ratioP2;P2;SDS_P1;SDS_P2;PMS_P1;PMS_P2;Temp;Humidity;BMP_temperature;BMP_pressure;BME280_temperature;BME280_humidity;BME280_pressure;Samples;Min_cycle;Max_cycle;Signal;HPM_P1;HPM_P2
2023/05/17 00:00:17;;;;;;;;;;;;;;;24.25;29.68;102122.66;4099119;29;19926;-61
2023/05/17 00:02:19;;;;;;;;;;;;;;;24.24;29.84;102129.00;4099238;29;19922;-61
2023/05/17 00:04:21;;;;;;;;;;;;;;;24.26;29.64;102121.69;4096916;29;19933;-61
2023/05/17 00:06:22;;;;;;;;;;;;;;;24.27;29.70;102123.41;4099348;29;19970;-61
2023/05/17 00:08:24;;;;;;;;;;;;;;;24.28;29.86;102132.31;4099191;29;19930;-61
2023/05/17 00:10:26;;;;;;;;;;;;;;;24.29;29.76;102118.78;4099003;29;20018;-61
2023/05/17 00:12:27;;;;;;;;;;;;;;;24.29;29.75;102118.78;4098955;29;19923;-62
2023/05/17 00:14:29;;;;;;;;;;;;;;;24.30;29.67;102115.09;4098754;29;19922;-61
2023/05/17 00:16:31;;;;;;;;;;;;;;;24.30;29.61;102117.78;4099242;29;20436;-60
2023/05/17 00:18:32;;;;;;;;;;;;;;;24.31;29.56;102121.34;4098891;29;19973;-61
2023/05/17 00:20:35;;;;;;;;;;;;;;;24.31;29.58;102121.34;4099189;29;20360;-60
2023/05/17 00:22:37;;;;;;;;;;;;;;;24.30;29.53;102115.09;4098218;29;20348;-60
2023/05/17 00:24:38;;;;;;;;;;;;;;;24.30;29.51;102115.09;4113815;28;19922;-60
2023/05/17 00:26:40;;;;;;;;;;;;;;;24.30;29.58;102123.16;4103973;28;19974;-60
2023/05/17 00:28:41;;;;;;;;;;;;;;;24.30;29.78;102116.94;4099026;29;19926;-61
2023/05/17 00:30:43;;;;;;;;;;;;;;;24.30;29.51;102114.25;4099029;29;19977;-61
2023/05/17 00:32:45;;;;;;;;;;;;;;;24.31;29.61;102113.28;4098225;29;19949;-61
2023/05/17 00:34:47;;;;;;;;;;;;;;;24.31;29.84;102119.53;4110371;28;19931;-62
2023/05/17 00:36:49;;;;;;;;;;;;;;;24.32;29.77;102117.72;4115099;28;20241;-61
2023/05/17 00:38:50;;;;;;;;;;;;;;;24.32;29.48;102118.56;4115023;28;19934;-61
2023/05/17 00:40:52;;;;;;;;;;;;;;;24.32;29.71;102113.19;4098576;28;19969;-61
2023/05/17 00:42:54;;;;;;;;;;;;;;;24.33;29.70;102122.13;4116937;28;20439;-61
2023/05/17 00:44:56;;;;;;;;;;;;;;;24.32;29.89;102118.56;4103152;28;19973;-61
2023/05/17 00:47:01;;;;;;;;;;;;;;;24.32;29.59;102123.09;4101922;29;19978;-61
2023/05/17 00:49:03;;;;;;;;;;;;;;;24.32;29.47;102121.25;4101881;29;19928;-61
2023/05/17 00:51:05;;;;;;;;;;;;;;;24.31;29.54;102121.34;4101880;29;19922;-61
2023/05/17 00:53:08;;;;;;;;;;;;;;;24.31;29.48;102121.34;4100947;29;19922;-61
2023/05/17 00:55:09;;;;;;;;;;;;;;;24.31;29.59;102132.97;4101983;29;19922;-61
2023/05/17 00:57:11;;;;;;;;;;;;;;;24.33;29.56;102130.19;4101783;29;20359;-61
2023/05/17 00:59:13;;;;;;;;;;;;;;;24.33;29.75;102119.44;4101794;29;19929;-61
2023/05/17 01:01:14;;;;;;;;;;;;;;;24.33;29.63;102112.22;4101673;29;19926;-61
2023/05/17 01:03:16;;;;;;;;;;;;;;;24.33;29.51;102120.28;4099472;29;19965;-61
2023/05/17 01:05:18;;;;;;;;;;;;;;;24.34;29.83;102115.75;4100694;29;19922;-61
2023/05/17 01:07:19;;;;;;;;;;;;;;;24.33;29.35;102111.38;4101989;29;20293;-61
2023/05/17 01:09:21;;;;;;;;;;;;;;;24.33;29.38;102117.59;4101594;29;19923;-62
2023/05/17 01:11:43;;;;;;;;;;;;;;;24.32;29.56;102115.88;4101542;29;19922;-61
2023/05/17 01:13:44;;;;;;;;;;;;;;;24.31;29.72;102118.66;4051375;29;20393;-61
2023/05/17 01:15:50;;;;;;;;;;;;;;;24.31;29.37;102111.44;4052679;29;19923;-60
2023/05/17 01:17:54;;;;;;;;;;;;;;;24.31;29.51;102107.91;4052262;29;19927;-61
2023/05/17 01:20:19;;;;;;;;;;;;;;;24.31;29.49;102108.75;4052334;29;20309;-61
2023/05/17 01:22:30;;;;;;;;;;;;;;;24.31;29.58;102099.84;4052279;29;19979;-61
2023/05/17 01:24:31;;;;;;;;;;;;;;;24.32;29.75;102106.94;4051166;29;20425;-61
2023/05/17 01:26:40;;;;;;;;;;;;;;;24.32;29.84;102105.09;4061847;29;19982;-61
2023/05/17 01:28:43;;;;;;;;;;;;;;;24.33;29.68;102109.53;4068095;29;19937;-61
2023/05/17 01:30:46;;;;;;;;;;;;;;;24.33;29.51;102106.00;4067999;29;19976;-61
2023/05/17 01:32:47;;;;;;;;;;;;;;;24.33;29.43;102114.91;4050983;29;19927;-61
2023/05/17 01:34:49;;;;;;;;;;;;;;;24.34;29.53;102119.31;4067512;29;20432;-61
2023/05/17 01:36:51;;;;;;;;;;;;;;;24.33;29.66;102117.59;4067929;29;19923;-61
2023/05/17 01:38:53;;;;;;;;;;;;;;;24.32;29.63;102118.56;4067673;29;19923;-61
2023/05/17 01:40:57;;;;;;;;;;;;;;;24.33;29.86;102114.06;4067634;29;19923;-61
2023/05/17 01:43:09;;;;;;;;;;;;;;;24.32;29.79;102115.88;4066768;29;19923;-61
2023/05/17 01:45:13;;;;;;;;;;;;;;;24.32;29.68;102110.50;4052004;29;19923;-61
2023/05/17 01:47:23;;;;;;;;;;;;;;;24.32;29.93;102110.50;4051729;29;20329;-61
2023/05/17 01:49:32;;;;;;;;;;;;;;;24.33;29.67;102111.38;4052072;29;20357;-61
2023/05/17 01:51:38;;;;;;;;;;;;;;;24.33;29.83;102104.16;4075576;29;19938;-61
2023/05/17 01:53:46;;;;;;;;;;;;;;;24.34;29.60;102103.19;4084194;29;20004;-61
2023/05/17 01:55:54;;;;;;;;;;;;;;;24.35;29.73;102109.41;4085277;29;19930;-61
2023/05/17 01:57:56;;;;;;;;;;;;;;;24.35;29.84;102104.91;4085289;29;20025;-61
2023/05/17 01:59:59;;;;;;;;;;;;;;;24.35;29.96;102110.28;4084985;29;20388;-61
2023/05/17 02:02:07;;;;;;;;;;;;;;;24.35;29.90;102104.91;4085258;29;20423;-61
2023/05/17 02:04:09;;;;;;;;;;;;;;;24.34;29.59;102108.56;4084130;29;19961;-61
2023/05/17 02:06:11;;;;;;;;;;;;;;;24.34;30.06;102113.94;4084884;29;19927;-61
2023/05/17 02:08:13;;;;;;;;;;;;;;;24.33;30.07;102104.16;4085154;29;19931;-61
2023/05/17 02:10:14;;;;;;;;;;;;;;;24.35;29.98;102109.41;4085006;29;19923;-61
2023/05/17 02:12:16;;;;;;;;;;;;;;;24.35;29.97;102109.41;4085080;29;19945;-61
2023/05/17 02:14:17;;;;;;;;;;;;;;;24.36;29.92;102113.81;4083852;29;20375;-60
2023/05/17 02:16:18;;;;;;;;;;;;;;;24.36;29.66;102108.44;4084543;29;20312;-61
2023/05/17 02:18:20;;;;;;;;;;;;;;;24.37;29.82;102112.84;4084919;29;20010;-61
2023/05/17 02:20:22;;;;;;;;;;;;;;;24.37;29.79;102110.16;4087944;29;19926;-61
2023/05/17 02:22:24;;;;;;;;;;;;;;;24.40;29.87;102104.56;4100552;29;19965;-61
2023/05/17 02:24:25;;;;;;;;;;;;;;;24.38;29.85;102103.81;4111912;28;20434;-61
2023/05/17 02:26:27;;;;;;;;;;;;;;;24.38;29.96;102111.88;4106646;28;20388;-61
2023/05/17 02:28:28;;;;;;;;;;;;;;;24.37;29.76;102111.00;4099812;29;20349;-61
2023/05/17 02:30:30;;;;;;;;;;;;;;;24.38;29.72;102117.25;4099529;29;19964;-61
2023/05/17 02:32:32;;;;;;;;;;;;;;;24.38;29.96;102115.41;4099753;29;19926;-61
2023/05/17 02:34:33;;;;;;;;;;;;;;;24.38;29.76;102115.41;4108434;28;19922;-61
2023/05/17 02:36:35;;;;;;;;;;;;;;;24.39;29.87;102116.28;4115711;28;19922;-61
2023/05/17 02:38:36;;;;;;;;;;;;;;;24.39;29.94;102121.69;4115330;28;19921;-61
2023/05/17 02:40:40;;;;;;;;;;;;;;;24.41;29.81;102125.09;4115512;28;20017;-61
2023/05/17 02:42:41;;;;;;;;;;;;;;;24.43;29.85;102127.69;4098252;29;20298;-61
2023/05/17 02:44:43;;;;;;;;;;;;;;;24.43;29.83;102128.53;4100891;28;20876;-61
2023/05/17 02:46:44;;;;;;;;;;;;;;;24.43;29.86;102131.22;4099488;29;19929;-61
2023/05/17 02:48:46;;;;;;;;;;;;;;;24.43;29.92;102131.22;4099554;29;20002;-61
2023/05/17 02:50:47;;;;;;;;;;;;;;;24.41;29.83;102130.47;4099598;29;20053;-61
2023/05/17 02:52:49;;;;;;;;;;;;;;;24.41;30.19;102130.47;4099150;29;19922;-61
2023/05/17 02:54:51;;;;;;;;;;;;;;;24.43;30.08;102138.44;4098250;29;19946;-61
2023/05/17 02:56:52;;;;;;;;;;;;;;;24.42;29.84;102136.72;4099458;29;19937;-61
2023/05/17 02:58:56;;;;;;;;;;;;;;;24.40;30.04;102131.47;4098967;29;19923;-61
2023/05/17 03:00:57;;;;;;;;;;;;;;;24.41;29.76;102138.53;4099320;29;19929;-61
2023/05/17 03:03:00;;;;;;;;;;;;;;;24.42;29.94;102139.41;4098396;28;20424;-62
2023/05/17 03:05:03;;;;;;;;;;;;;;;24.44;29.97;102134.78;4098417;29;19929;-61
2023/05/17 03:07:05;;;;;;;;;;;;;;;24.44;29.93;102135.63;4099074;29;19934;-61
2023/05/17 03:09:07;;;;;;;;;;;;;;;24.46;29.94;102139.09;4099216;29;19928;-61
2023/05/17 03:11:09;;;;;;;;;;;;;;;24.46;30.03;102141.78;4099218;29;19929;-61
2023/05/17 03:13:10;;;;;;;;;;;;;;;24.46;29.97;102133.72;4098049;29;20292;-61
2023/05/17 03:15:12;;;;;;;;;;;;;;;24.47;29.88;102130.03;4099142;29;19949;-61
2023/05/17 03:17:14;;;;;;;;;;;;;;;24.45;30.04;102131.97;4099163;29;19973;-61
2023/05/17 03:19:15;;;;;;;;;;;;;;;24.46;29.91;102132.84;4099261;29;20307;-61
2023/05/17 03:21:17;;;;;;;;;;;;;;;24.44;29.79;102132.94;4109389;28;19926;-61
2023/05/17 03:23:18;;;;;;;;;;;;;;;24.45;29.92;102133.78;4069844;28;1290241;-61
2023/05/17 03:25:20;;;;;;;;;;;;;;;24.45;30.36;102129.28;4115304;28;19922;-61
2023/05/17 03:27:22;;;;;;;;;;;;;;;24.46;29.87;102127.44;4099419;29;19929;-62
2023/05/17 03:29:23;;;;;;;;;;;;;;;24.47;29.82;102129.16;4099649;29;19977;-61
2023/05/17 03:31:25;;;;;;;;;;;;;;;24.47;30.26;102138.09;4099597;29;19968;-61
2023/05/17 03:33:26;;;;;;;;;;;;;;;24.49;30.28;102132.63;4099934;28;20033;-61
2023/05/17 03:35:31;;;;;;;;;;;;;;;24.48;30.09;102137.13;4115505;28;20356;-61
2023/05/17 03:37:33;;;;;;;;;;;;;;;24.50;30.09;102143.25;4115485;28;20498;-61
2023/05/17 03:39:34;;;;;;;;;;;;;;;24.49;30.27;102143.38;4115224;28;19922;-61
2023/05/17 03:41:36;;;;;;;;;;;;;;;24.48;29.96;102145.19;4115026;28;20021;-61
2023/05/17 03:43:37;;;;;;;;;;;;;;;24.49;30.30;102138.84;4110102;28;19964;-61
2023/05/17 03:45:40;;;;;;;;;;;;;;;24.47;30.14;102143.47;4099422;29;19923;-61
2023/05/17 03:47:41;;;;;;;;;;;;;;;24.49;30.21;102148.75;4099426;29;19922;-62
2023/05/17 03:49:43;;;;;;;;;;;;;;;24.48;30.04;102153.25;4099490;29;20010;-61
2023/05/17 03:51:45;;;;;;;;;;;;;;;24.48;30.29;102147.03;4099259;29;19938;-61
2023/05/17 03:53:46;;;;;;;;;;;;;;;24.48;30.33;102149.72;4098391;29;19922;-61
2023/05/17 03:55:48;;;;;;;;;;;;;;;24.48;30.36;102155.09;4082218;29;20297;-61
2023/05/17 03:57:49;;;;;;;;;;;;;;;24.44;30.28;102140.16;4099242;29;19992;-61
2023/05/17 03:59:51;;;;;;;;;;;;;;;24.51;30.37;102149.47;4099331;29;19968;-61
2023/05/17 04:01:52;;;;;;;;;;;;;;;24.51;30.16;102158.44;4099275;29;20079;-61
2023/05/17 04:03:54;;;;;;;;;;;;;;;24.51;30.05;102149.47;4098291;29;19929;-61
2023/05/17 04:06:05;;;;;;;;;;;;;;;24.51;29.88;102157.56;4099303;29;20300;-61
2023/05/17 04:08:07;;;;;;;;;;;;;;;24.49;30.15;102160.34;4099054;29;20391;-61
2023/05/17 04:10:09;;;;;;;;;;;;;;;24.49;30.08;102165.75;4099111;29;19927;-61
2023/05/17 04:12:11;;;;;;;;;;;;;;;24.47;30.18;102159.59;4098779;29;19923;-61
2023/05/17 04:14:12;;;;;;;;;;;;;;;24.49;30.16;102172.97;4097174;29;19923;-61
2023/05/17 04:16:14;;;;;;;;;;;;;;;24.48;29.94;102171.25;4098344;29;20390;-62
2023/05/17 04:18:15;;;;;;;;;;;;;;;24.48;30.15;102172.09;4099319;29;20013;-61
2023/05/17 04:20:17;;;;;;;;;;;;;;;24.49;30.19;102176.50;4101467;28;19922;-61
2023/05/17 04:22:19;;;;;;;;;;;;;;;24.50;30.29;102177.38;4115006;28;19922;-61
2023/05/17 04:24:20;;;;;;;;;;;;;;;24.50;30.41;102180.06;4113704;28;19932;-61
2023/05/17 04:26:22;;;;;;;;;;;;;;;24.51;30.14;102185.31;4106362;28;19923;-61
2023/05/17 04:28:24;;;;;;;;;;;;;;;24.50;30.14;102190.81;4098920;29;19966;-61
2023/05/17 04:30:26;;;;;;;;;;;;;;;24.51;30.14;102190.72;4098876;29;19944;-61
2023/05/17 04:32:28;;;;;;;;;;;;;;;24.50;30.14;102190.81;4099160;29;19961;-60
2023/05/17 04:34:30;;;;;;;;;;;;;;;24.49;30.20;102191.78;4107275;28;19922;-61
2023/05/17 04:36:32;;;;;;;;;;;;;;;24.49;30.16;102189.94;4115059;28;20021;-61
2023/05/17 04:38:34;;;;;;;;;;;;;;;24.49;30.21;102199.84;4114821;28;19926;-61
2023/05/17 04:40:35;;;;;;;;;;;;;;;24.49;29.98;102199.84;4114585;28;20351;-61
2023/05/17 04:42:37;;;;;;;;;;;;;;;24.49;30.07;102198.00;4114921;28;20372;-61
2023/05/17 04:44:38;;;;;;;;;;;;;;;24.49;30.27;102198.00;4101311;28;19930;-61
2023/05/17 04:46:42;;;;;;;;;;;;;;;24.50;30.34;102204.28;4098866;29;20311;-61
2023/05/17 04:48:44;;;;;;;;;;;;;;;24.51;30.26;102204.16;4099056;29;19981;-61
2023/05/17 04:50:46;;;;;;;;;;;;;;;24.52;30.05;102202.31;4098650;29;19950;-61
2023/05/17 04:52:47;;;;;;;;;;;;;;;24.51;30.02;102203.28;4099140;29;20343;-61
2023/05/17 04:54:49;;;;;;;;;;;;;;;24.51;30.09;102211.34;4097456;29;19954;-61
2023/05/17 04:56:50;;;;;;;;;;;;;;;24.51;30.19;102216.72;4099013;29;19923;-61
2023/05/17 04:58:52;;;;;;;;;;;;;;;24.52;30.33;102218.44;4097656;29;20021;-61
2023/05/17 05:00:54;;;;;;;;;;;;;;;24.51;30.14;102219.41;4098571;29;20017;-61
2023/05/17 05:02:55;;;;;;;;;;;;;;;24.50;30.27;102218.56;4098774;29;19922;-61
2023/05/17 05:04:57;;;;;;;;;;;;;;;24.50;30.20;102223.09;4097946;29;19981;-60
2023/05/17 05:06:59;;;;;;;;;;;;;;;24.50;30.27;102220.41;4099017;29;20388;-61
2023/05/17 05:09:01;;;;;;;;;;;;;;;24.51;30.26;102230.16;4098558;29;20466;-61
2023/05/17 05:11:02;;;;;;;;;;;;;;;24.53;30.25;102222.88;4098719;29;19997;-61
2023/05/17 05:13:04;;;;;;;;;;;;;;;24.52;30.28;102235.47;4098823;29;19926;-61
2023/05/17 05:15:06;;;;;;;;;;;;;;;24.53;29.96;102236.31;4097503;29;19922;-60
2023/05/17 05:17:08;;;;;;;;;;;;;;;24.53;30.25;102239.00;4098550;29;19922;-61
2023/05/17 05:19:10;;;;;;;;;;;;;;;24.54;30.10;102240.72;4098712;29;20416;-61
2023/05/17 05:21:12;;;;;;;;;;;;;;;24.52;29.95;102240.84;4108183;28;19960;-61
2023/05/17 05:23:14;;;;;;;;;;;;;;;24.53;29.89;102245.25;4114159;28;19934;-61
2023/05/17 05:25:15;;;;;;;;;;;;;;;24.52;30.14;102248.03;4113298;28;19964;-62
2023/05/17 05:27:17;;;;;;;;;;;;;;;24.53;30.10;102252.44;4100119;28;20020;-61
2023/05/17 05:29:18;;;;;;;;;;;;;;;24.51;30.03;102244.50;4101497;29;19984;-61
2023/05/17 05:31:20;;;;;;;;;;;;;;;24.51;30.14;102249.88;4101323;29;20072;-61
2023/05/17 05:33:21;;;;;;;;;;;;;;;24.51;30.09;102247.19;4084804;29;19982;-61
2023/05/17 05:35:28;;;;;;;;;;;;;;;24.52;30.07;102245.34;4116275;28;20398;-62
2023/05/17 05:37:30;;;;;;;;;;;;;;;24.53;30.20;102247.94;4117081;28;19922;-60
2023/05/17 05:39:31;;;;;;;;;;;;;;;24.53;30.27;102253.31;4117174;28;20494;-60
2023/05/17 05:41:33;;;;;;;;;;;;;;;24.53;30.01;102256.00;4117319;28;19960;-61
2023/05/17 05:43:36;;;;;;;;;;;;;;;24.51;30.24;102257.94;4112642;28;20022;-62
2023/05/17 05:45:40;;;;;;;;;;;;;;;24.52;30.08;102266.84;4100893;29;20293;-61
2023/05/17 05:47:41;;;;;;;;;;;;;;;24.52;30.33;102267.75;4101138;29;19922;-61
2023/05/17 05:49:43;;;;;;;;;;;;;;;24.52;30.10;102259.66;4101183;29;19929;-61
2023/05/17 05:51:44;;;;;;;;;;;;;;;24.51;30.01;102271.38;4101107;29;19926;-61
2023/05/17 05:53:46;;;;;;;;;;;;;;;24.50;30.10;102275.03;4100003;29;20021;-61
2023/05/17 05:55:48;;;;;;;;;;;;;;;24.50;30.21;102275.03;4100866;29;20013;-62
2023/05/17 05:57:49;;;;;;;;;;;;;;;24.51;29.91;102279.47;4101063;29;19948;-61
2023/05/17 05:59:51;;;;;;;;;;;;;;;24.50;30.04;102280.44;4101039;29;19954;-61
2023/05/17 06:01:53;;;;;;;;;;;;;;;24.50;30.04;102283.13;4100742;29;19968;-62
2023/05/17 06:03:54;;;;;;;;;;;;;;;24.50;30.20;102284.97;4100170;29;19926;-61
2023/05/17 06:05:56;;;;;;;;;;;;;;;24.51;30.12;102290.22;4100847;29;19923;-62
2023/05/17 06:07:57;;;;;;;;;;;;;;;24.50;29.97;102291.19;4100328;29;19958;-62
2023/05/17 06:09:59;;;;;;;;;;;;;;;24.49;30.25;102289.47;4100903;29;19973;-62
2023/05/17 06:12:01;;;;;;;;;;;;;;;24.50;30.02;102290.34;4100676;29;19929;-61
2023/05/17 06:14:02;;;;;;;;;;;;;;;24.49;29.97;102291.31;4099889;29;19989;-61
2023/05/17 06:16:04;;;;;;;;;;;;;;;24.49;30.17;102297.53;4100418;29;20176;-62
2023/05/17 06:18:06;;;;;;;;;;;;;;;24.48;30.21;102297.63;4100966;29;20017;-61
2023/05/17 06:20:08;;;;;;;;;;;;;;;24.48;30.21;102306.56;4101793;28;19929;-61
2023/05/17 06:22:09;;;;;;;;;;;;;;;24.47;29.86;102307.53;4116307;28;19945;-62
2023/05/17 06:24:11;;;;;;;;;;;;;;;24.47;29.87;102303.97;4115474;28;19922;-61
2023/05/17 06:26:12;;;;;;;;;;;;;;;24.48;29.97;102305.72;4109192;28;19997;-61
2023/05/17 06:28:14;;;;;;;;;;;;;;;24.48;30.23;102303.03;4100693;29;20491;-61
2023/05/17 06:30:16;;;;;;;;;;;;;;;24.48;30.16;102303.03;4100517;29;19923;-61
2023/05/17 06:32:17;;;;;;;;;;;;;;;24.47;29.96;102309.38;4100741;29;19929;-61
2023/05/17 06:34:19;;;;;;;;;;;;;;;24.48;30.08;102311.94;4107434;28;20033;-61
2023/05/17 06:36:20;;;;;;;;;;;;;;;24.48;30.13;102314.63;4115999;28;19944;-61
2023/05/17 06:38:22;;;;;;;;;;;;;;;24.48;29.71;102313.78;4115642;28;20296;-61
2023/05/17 06:40:23;;;;;;;;;;;;;;;24.46;29.92;102319.28;4116525;28;19921;-61
2023/05/17 06:42:25;;;;;;;;;;;;;;;24.45;30.05;102328.31;4116009;28;20058;-61
2023/05/17 06:44:26;;;;;;;;;;;;;;;24.44;30.07;102323.88;4104458;28;20001;-61
2023/05/17 06:46:28;;;;;;;;;;;;;;;24.43;30.15;102319.47;4100218;29;19983;-61
2023/05/17 06:48:29;;;;;;;;;;;;;;;24.42;29.95;102328.50;4083238;29;19965;-62
2023/05/17 06:50:31;;;;;;;;;;;;;;;24.43;30.09;102322.16;4099893;29;20285;-61
2023/05/17 06:52:33;;;;;;;;;;;;;;;24.44;29.89;102320.34;4100280;29;19923;-61
2023/05/17 06:54:35;;;;;;;;;;;;;;;24.45;30.04;102336.38;4099083;29;20002;-62
2023/05/17 06:56:36;;;;;;;;;;;;;;;24.44;30.03;102321.19;4100222;29;20024;-61
2023/05/17 06:58:38;;;;;;;;;;;;;;;24.43;30.13;102330.22;4100358;29;19922;-60
2023/05/17 07:00:39;;;;;;;;;;;;;;;24.44;29.99;102329.28;4099925;29;19929;-62
2023/05/17 07:02:41;;;;;;;;;;;;;;;24.43;29.88;102327.53;4100073;29;19930;-61
2023/05/17 07:04:43;;;;;;;;;;;;;;;24.42;30.08;102327.66;4098796;29;20173;-61
2023/05/17 07:06:44;;;;;;;;;;;;;;;24.43;29.88;102332.06;4100164;29;19926;-60
2023/05/17 07:08:46;;;;;;;;;;;;;;;24.42;30.13;102333.03;4100038;29;20013;-60
2023/05/17 07:10:49;;;;;;;;;;;;;;;24.41;30.00;102332.16;4099880;29;20005;-60
2023/05/17 07:12:51;;;;;;;;;;;;;;;24.43;30.16;102332.06;4099772;29;20619;-61
2023/05/17 07:14:52;;;;;;;;;;;;;;;24.43;29.86;102326.69;4098767;29;20393;-61
2023/05/17 07:16:54;;;;;;;;;;;;;;;24.43;30.07;102337.44;4099767;29;19933;-61
2023/05/17 07:18:55;;;;;;;;;;;;;;;24.45;30.09;102341.75;4099594;29;19946;-61
2023/05/17 07:20:57;;;;;;;;;;;;;;;24.44;29.93;102340.03;4107274;28;20375;-61
2023/05/17 07:22:59;;;;;;;;;;;;;;;24.46;30.08;102343.47;4115537;28;20000;-61
2023/05/17 07:25:01;;;;;;;;;;;;;;;24.46;29.87;102346.16;4114734;28;19965;-61
2023/05/17 07:27:02;;;;;;;;;;;;;;;24.47;29.96;102345.16;4101901;28;19928;-61
2023/05/17 07:29:04;;;;;;;;;;;;;;;24.47;30.02;102347.88;4099652;29;19964;-61
2023/05/17 07:31:05;;;;;;;;;;;;;;;24.48;30.10;102346.91;4099720;29;20033;-61
2023/05/17 07:33:07;;;;;;;;;;;;;;;24.49;30.11;102353.16;4099379;29;19984;-61
2023/05/17 07:35:09;;;;;;;;;;;;;;;24.48;29.89;102352.28;4112772;28;19922;-61
2023/05/17 07:37:10;;;;;;;;;;;;;;;24.48;30.11;102351.44;4115462;28;19933;-61
2023/05/17 07:39:12;;;;;;;;;;;;;;;24.48;30.14;102352.28;4115607;28;20008;-61
2023/05/17 07:41:15;;;;;;;;;;;;;;;24.50;29.96;102354.88;4115496;28;19944;-61
2023/05/17 07:43:17;;;;;;;;;;;;;;;24.50;30.10;102354.88;4113352;28;19922;-62
2023/05/17 07:45:18;;;;;;;;;;;;;;;24.52;30.13;102359.19;4098466;29;19922;-61
2023/05/17 07:47:20;;;;;;;;;;;;;;;24.50;30.09;102355.72;4099334;29;19922;-61
2023/05/17 07:49:26;;;;;;;;;;;;;;;24.52;30.13;102363.69;4098688;28;19929;-61
2023/05/17 07:51:27;;;;;;;;;;;;;;;24.50;30.07;102361.13;4099410;29;19922;-62
2023/05/17 07:53:29;;;;;;;;;;;;;;;24.50;29.92;102366.50;4099509;29;19922;-61
2023/05/17 07:55:31;;;;;;;;;;;;;;;24.50;29.79;102363.81;4098287;29;20020;-62
2023/05/17 07:57:33;;;;;;;;;;;;;;;24.50;29.96;102365.66;4099273;29;20001;-61
2023/05/17 07:59:34;;;;;;;;;;;;;;;24.49;30.07;102364.75;4099407;29;20268;-61
2023/05/17 08:01:36;;;;;;;;;;;;;;;24.50;30.01;102368.34;4099061;29;19969;-61
2023/05/17 08:03:38;;;;;;;;;;;;;;;24.49;29.79;102366.59;4098779;29;20009;-61
2023/05/17 08:05:42;;;;;;;;;;;;;;;24.51;29.96;102367.34;4098219;29;20021;-62
2023/05/17 08:07:44;;;;;;;;;;;;;;;24.51;29.84;102373.59;4099080;29;19926;-61
2023/05/17 08:09:45;;;;;;;;;;;;;;;24.51;29.95;102370.91;4099426;29;20020;-61
2023/05/17 08:11:47;;;;;;;;;;;;;;;24.54;29.90;102365.31;4099065;29;20418;-61
2023/05/17 08:13:48;;;;;;;;;;;;;;;24.53;29.64;102373.47;4098965;29;20257;-61
2023/05/17 08:15:50;;;;;;;;;;;;;;;24.54;29.70;102364.44;4097924;29;19923;-61
2023/05/17 08:18:01;;;;;;;;;;;;;;;24.53;29.84;102365.41;4097705;28;19923;-62
2023/05/17 08:20:06;;;;;;;;;;;;;;;24.54;29.68;102364.44;4100697;28;19954;-62
2023/05/17 08:22:09;;;;;;;;;;;;;;;24.52;29.83;102364.56;4114938;28;19926;-61
2023/05/17 08:24:11;;;;;;;;;;;;;;;24.54;29.91;102369.84;4096066;29;19958;-63
2023/05/17 08:26:12;;;;;;;;;;;;;;;24.62;29.66;102362.09;4107855;28;19968;-61
2023/05/17 08:28:14;;;;;;;;;;;;;;;24.69;29.53;102349.97;4098992;29;19929;-60
2023/05/17 08:30:15;;;;;;;;;;;;;;;24.77;29.76;102353.97;4098547;29;19938;-61
2023/05/17 08:32:29;;;;;;;;;;;;;;;24.87;29.20;102352.31;4098501;29;20034;-61
2023/05/17 08:34:31;;;;;;;;;;;;;;;24.96;29.09;102353.50;4107424;28;19926;-62
2023/05/17 08:36:33;;;;;;;;;;;;;;;25.04;28.78;102357.38;4114803;28;20021;-62
2023/05/17 08:38:34;;;;;;;;;;;;;;;25.14;28.62;102348.63;4115123;28;19922;-63
2023/05/17 08:40:36;;;;;;;;;;;;;;;25.23;28.46;102360.59;4102740;28;20320;-65
2023/05/17 08:42:38;;;;;;;;;;;;;;;25.29;28.11;102349.38;4104626;28;19923;-65
2023/05/17 08:44:40;;;;;;;;;;;;;;;25.35;27.98;102352.47;4105724;28;20300;-63
2023/05/17 08:46:52;;;;;;;;;;;;;;;25.40;27.93;102349.47;4090924;28;19965;-64
2023/05/17 08:48:58;;;;;;;;;;;;;;;25.45;27.65;102343.75;4102904;28;19945;-61
2023/05/17 08:51:00;;;;;;;;;;;;;;;25.50;27.57;102341.59;4103154;28;20055;-62
2023/05/17 08:53:02;;;;;;;;;;;;;;;25.55;27.65;102352.03;4098269;28;19929;-63
2023/05/17 08:55:05;;;;;;;;;;;;;;;25.57;27.41;102342.84;4108547;28;19929;-64
2023/05/17 08:57:07;;;;;;;;;;;;;;;25.62;27.34;102343.38;4093474;29;19938;-62
2023/05/17 08:59:12;;;;;;;;;;;;;;;25.66;27.42;102338.59;4100173;28;19922;-61
2023/05/17 09:01:15;;;;;;;;;;;;;;;25.68;27.31;102336.66;4104945;28;20404;-62
2023/05/17 09:03:18;;;;;;;;;;;;;;;25.71;27.43;102335.56;4100823;28;19929;-61
2023/05/17 09:05:20;;;;;;;;;;;;;;;25.76;26.97;102328.00;4111723;28;19928;-61
2023/05/17 09:07:22;;;;;;;;;;;;;;;25.76;27.19;102330.69;4101329;29;19923;-59
2023/05/17 09:09:24;;;;;;;;;;;;;;;25.77;27.07;102337.81;4104242;28;19929;-59
2023/05/17 09:11:27;;;;;;;;;;;;;;;25.79;26.99;102331.31;4109278;28;20029;-61
2023/05/17 09:13:28;;;;;;;;;;;;;;;25.81;26.95;102325.84;4101060;29;20008;-63
2023/05/17 09:15:30;;;;;;;;;;;;;;;25.82;26.75;102332.94;4110570;28;20020;-63
2023/05/17 09:17:32;;;;;;;;;;;;;;;25.83;26.79;102329.25;4096268;28;19923;-64
2023/05/17 09:19:41;;;;;;;;;;;;;;;25.71;26.69;102322.94;4102832;28;19978;-63
2023/05/17 09:21:46;;;;;;;;;;;;;;;25.67;26.66;102319.63;4106705;28;19935;-63
2023/05/17 09:23:48;;;;;;;;;;;;;;;25.71;26.91;102322.09;4102425;28;19922;-63
2023/05/17 09:26:09;;;;;;;;;;;;;;;25.71;26.79;102320.25;4125548;28;19926;-62
2023/05/17 09:28:11;;;;;;;;;;;;;;;25.67;26.57;102308.84;4132790;28;19925;-62
2023/05/17 09:30:13;;;;;;;;;;;;;;;25.70;26.43;102312.28;4125882;28;19930;-62
2023/05/17 09:32:19;;;;;;;;;;;;;;;25.79;26.59;102328.63;4112894;28;20026;-64
2023/05/17 09:34:23;;;;;;;;;;;;;;;25.81;26.41;102324.00;4118587;28;20442;-60
2023/05/17 09:36:25;;;;;;;;;;;;;;;25.82;26.54;102325.72;4121086;28;19926;-60
2023/05/17 09:38:26;;;;;;;;;;;;;;;25.87;26.69;102332.59;4124778;28;19932;-64
2023/05/17 09:40:28;;;;;;;;;;;;;;;25.86;26.32;102330.84;4128594;28;19968;-64
2023/05/17 09:42:31;;;;;;;;;;;;;;;25.89;26.26;102331.50;4120134;28;19942;-66
2023/05/17 09:44:44;;;;;;;;;;;;;;;25.89;26.32;102341.44;4115438;28;19922;-66
2023/05/17 09:46:46;;;;;;;;;;;;;;;25.91;26.38;102323.31;4120359;28;20008;-67
2023/05/17 09:48:55;;;;;;;;;;;;;;;25.84;26.10;102318.34;4119133;28;19926;-66
2023/05/17 09:50:57;;;;;;;;;;;;;;;25.93;26.03;102327.59;4108695;28;19961;-62
2023/05/17 09:52:58;;;;;;;;;;;;;;;25.94;26.07;102333.84;4116640;28;20022;-62
2023/05/17 09:55:00;;;;;;;;;;;;;;;25.95;26.05;102320.25;4115071;28;19926;-62
2023/05/17 09:57:06;;;;;;;;;;;;;;;25.95;25.64;102312.16;4119219;28;19922;-65
2023/05/17 09:59:14;;;;;;;;;;;;;;;25.97;25.93;102317.44;4131889;28;19928;-62
2023/05/17 10:01:16;;;;;;;;;;;;;;;25.95;25.79;102324.78;4127296;28;19929;-62
2023/05/17 10:03:18;;;;;;;;;;;;;;;25.93;25.89;102324.03;4125069;28;19926;-62
2023/05/17 10:05:20;;;;;;;;;;;;;;;25.96;25.71;102335.44;4131195;28;19922;-61
2023/05/17 10:07:24;;;;;;;;;;;;;;;25.97;25.79;102320.16;4127517;28;19976;-65
2023/05/17 10:09:33;;;;;;;;;;;;;;;25.97;25.63;102322.84;4105207;28;20060;-65
2023/05/17 10:11:36;;;;;;;;;;;;;;;25.96;25.71;102311.19;4112890;28;19945;-64
2023/05/17 10:13:52;;;;;;;;;;;;;;;25.96;25.63;102316.56;4121742;28;20380;-64
2023/05/17 10:15:54;;;;;;;;;;;;;;;25.99;25.43;102315.47;4116084;28;19928;-68
2023/05/17 10:17:56;;;;;;;;;;;;;;;25.99;25.64;102307.38;4126992;28;20402;-66
2023/05/17 10:19:58;;;;;;;;;;;;;;;25.99;25.77;102297.47;4116080;28;19941;-65
2023/05/17 10:22:00;;;;;;;;;;;;;;;25.98;25.43;102305.69;4113888;28;19922;-63
2023/05/17 10:24:22;;;;;;;;;;;;;;;25.97;25.48;102306.66;4119952;28;19922;-66
2023/05/17 10:26:24;;;;;;;;;;;;;;;25.93;25.60;102307.84;4121803;28;20343;-64
2023/05/17 10:28:26;;;;;;;;;;;;;;;25.96;25.29;102295.00;4126417;28;19926;-61